Latest Coastal Weather Observations for Friendly Beaches

IDT60701

Issued at 10:35 pm EDT Monday 20 October 2014 (issued every 10 minutes, with the page automatically refreshed every 10 minutes)

About coastal observations | Map of coastal stations | Coastal observations for TAS | Marine services | Other Formats
Station Details ID: 092114 Name: FRIENDLY BEACHES Lat: -42.00 Lon: 148.28 Height: 55.0 m
Data from the previous 72 hours. | See also: Recent months at Friendly Beaches
Date/Time
EDT
Temp

°C
Wind Pressure Rain
since 9am
mm
Weather Cloud Vis
km
Sea
Height
m
Swell
Dir
 
Speed
knots
Gust
knots
hPa Trend Height
m
Period
s
Dir
20/10:30pm 7.4 WNW 0 0 1035.7 - 0.0 - - - - - - -
20/10:00pm 7.4 CALM 0 0 1035.9 - 0.0 - - - - - - -
20/09:30pm 7.8 ESE 1 2 1035.8 - 0.0 - - - - - - -
20/09:00pm 8.1 E 4 5 1035.4 - 0.0 - - - - - - -
20/08:30pm 8.2 ESE 3 4 1035.1 - 0.0 - - - - - - -
20/08:00pm 8.6 ESE 5 6 1034.7 - 0.0 - - - - - - -
20/07:30pm 9.3 ESE 5 7 1034.2 - 0.0 - - - - - - -
20/07:00pm 10.5 ESE 6 8 1034.0 - 0.0 - - - - - - -
20/06:30pm 11.7 ESE 5 7 1033.9 - 0.0 - - - - - - -
20/06:00pm 12.6 ESE 6 8 1033.8 - 0.0 - - - - - - -
20/05:30pm 13.6 ESE 7 10 1033.7 - 0.0 - - - - - - -
20/05:00pm 14.3 ESE 8 11 1033.6 - 0.0 - - - - - - -
20/04:30pm 14.7 ESE 8 11 1033.6 - 0.0 - - - - - - -
20/04:00pm 14.9 ESE 9 13 1033.5 - 0.0 - - - - - - -
20/03:30pm 15.1 ESE 10 13 1033.6 - 0.0 - - - - - - -
20/03:00pm 15.4 ESE 9 12 1033.6 - 0.0 - - - - - - -
20/02:30pm 15.1 ESE 8 11 1033.8 - 0.0 - - - - - - -
20/02:00pm 15.0 ESE 7 10 1033.9 - 0.0 - - - - - - -
20/01:30pm 14.9 E 6 9 1033.9 - 0.0 - - - - - - -
20/01:00pm 14.7 ESE 8 12 1033.9 - 0.0 - - - - - - -
20/12:30pm 14.4 SE 9 13 1033.9 - 0.0 - - - - - - -
20/12:00pm 13.4 S 7 13 1034.0 - 0.0 - - - - - - -
20/11:30am 11.9 SSW 8 12 1034.1 - 0.0 - - - - - - -
20/11:00am 12.0 SSW 8 15 1034.2 - 0.0 - - - - - - -
20/10:30am 12.4 SSW 7 12 1033.9 - 0.0 - - - - - - -
20/10:00am 11.8 SSW 9 15 1033.6 - 0.0 - - - - - - -
20/09:30am 11.3 SW 7 12 1033.1 - 0.0 - - - - - - -
20/09:00am 10.6 SW 8 15 1032.8 - 8.8 - - - - - - -
20/08:30am 9.1 WSW 7 11 1032.6 - 8.8 - - - - - - -
20/08:00am 8.1 WSW 7 13 1032.4 - 8.8 - - - - - - -
20/07:30am 6.5 W 5 7 1032.2 - 8.8 - - - - - - -
20/07:00am 5.3 WSW 7 10 1032.0 - 8.8 - - - - - - -
20/06:30am 4.6 WSW 7 11 1031.3 - 8.8 - - - - - - -
20/06:00am 4.2 W 5 8 1030.7 - 8.8 - - - - - - -
20/05:30am 4.6 WNW 6 8 1030.5 - 8.8 - - - - - - -
20/05:00am 5.0 W 5 8 1030.2 - 8.8 - - - - - - -
20/04:30am 5.7 WSW 6 9 1029.7 - 8.8 - - - - - - -
20/04:00am 6.4 W 6 9 1029.2 - 8.8 - - - - - - -
20/03:30am 6.1 WSW 5 9 1028.9 - 8.8 - - - - - - -
20/03:00am 6.3 WSW 7 10 1028.6 - 8.8 - - - - - - -
20/02:30am 6.4 WSW 6 10 1028.0 - 8.8 - - - - - - -
20/02:00am 6.9 SW 11 21 1027.5 - 8.8 - - - - - - -
20/01:30am 7.3 SW 11 17 1026.9 - 8.8 - - - - - - -
20/01:00am 7.0 SW 9 19 1027.1 - 8.8 - - - - - - -
20/12:30am 7.1 SW 8 15 1026.6 - 8.8 - - - - - - -
20/12:00am 7.3 SW 11 16 1026.0 - 8.8 - - - - - - -
 
Date/Time
EDT
Temp

°C
Wind Pressure Rain
since 9am
mm
Weather Cloud Vis
km
Sea
Height
m
Swell
Dir
 
Speed
knots
Gust
knots
hPa Trend Height
m
Period
s
Dir
19/11:30pm 7.2 WSW 10 16 1025.3 - 8.8 - - - - - - -
19/11:00pm 7.1 SW 14 23 1024.5 - 8.8 - - - - - - -
19/10:31pm 7.4 SSW 15 28 1024.0 - 8.8 - - - - - - -
19/10:30pm 7.5 SSW 14 28 1024.1 - 8.8 - - - - - - -
19/10:00pm 8.0 SSW 10 22 1023.5 - 8.6 - - - - - - -
19/09:30pm 8.3 S 10 16 1022.9 - 8.4 - - - - - - -
19/09:00pm 8.7 SSW 13 24 1022.1 - 8.4 Rain - - - - - -
19/08:30pm 9.1 SW 8 13 1021.5 - 7.0 - - - - - - -
19/08:00pm 9.2 SSW 11 17 1020.3 - 6.4 - - - - - - -
19/07:30pm 9.7 WSW 5 7 1019.5 - 5.6 - - - - - - -
19/07:00pm 9.6 WSW 10 17 1018.7 - 4.6 - - - - - - -
19/06:30pm 10.2 S 11 20 1017.4 - 2.6 - - - - - - -
19/06:00pm 10.9 S 7 16 1017.5 - 1.2 Rain - - - - - -
19/05:30pm 11.5 SSE 15 23 1017.1 - 0.0 - - - - - - -
19/05:00pm 11.9 SSE 15 22 1016.2 - 0.0 - - - - - - -
19/04:30pm 12.7 SSE 16 22 1015.6 - 0.0 - - - - - - -
19/04:00pm 14.3 SE 11 16 1015.5 - 0.0 - - - - - - -
19/03:30pm 15.1 SE 13 18 1015.3 - 0.0 - - - - - - -
19/03:00pm 16.0 SE 12 17 1015.4 - 0.0 - - - - - - -
19/02:30pm 17.5 SE 12 17 1014.7 - 0.0 - - - - - - -
19/02:00pm 18.6 E 5 6 1014.2 - 0.0 - - - - - - -
19/01:30pm 18.6 ENE 4 7 1013.7 - 0.0 - - - - - - -
19/01:00pm 20.7 ENE 6 10 1013.5 - 0.0 - - - - - - -
19/12:30pm 23.2 NNE 5 7 1013.7 - 0.0 - - - - - - -
19/12:00pm 21.4 NE 5 8 1014.0 - 0.0 - - - - - - -
19/11:30am 23.9 SW 6 11 1014.2 - 0.0 - - - - - - -
19/11:00am 23.8 SW 5 8 1014.5 - 0.0 - - - - - - -
19/10:30am 22.1 WSW 5 8 1014.5 - 0.0 - - - - - - -
19/10:00am 20.1 WNW 4 7 1014.4 - 0.0 - - - - - - -
19/09:30am 18.0 WNW 3 5 1014.8 - 0.0 - - - - - - -
19/09:00am 16.9 W 4 7 1014.9 - 0.0 - - - - - - -
19/08:30am 15.8 WNW 4 7 1015.3 - 0.0 - - - - - - -
19/08:00am 15.0 NW 6 8 1015.1 - 0.0 - - - - - - -
19/07:30am 14.8 N 8 11 1014.4 - 0.0 - - - - - - -
19/07:00am 14.9 N 8 13 1014.3 - 0.0 - - - - - - -
19/06:30am 15.6 N 9 15 1014.3 - 0.0 - - - - - - -
19/06:00am 16.0 N 11 20 1013.7 - 0.0 - - - - - - -
19/05:30am 16.5 N 14 21 1013.9 - 0.0 - - - - - - -
19/05:00am 17.3 N 11 17 1014.7 - 0.0 - - - - - - -
19/04:30am 18.2 NNW 12 22 1015.0 - 0.0 - - - - - - -
19/04:00am 17.9 NNW 9 16 1015.2 - 0.0 - - - - - - -
19/03:30am 17.2 NW 5 11 1015.0 - 0.0 - - - - - - -
19/03:00am 16.8 N 8 13 1015.3 - 0.0 - - - - - - -
19/02:30am 16.5 NNW 7 13 1015.8 - 0.0 - - - - - - -
19/02:00am 15.3 N 10 18 1016.0 - 0.0 - - - - - - -
19/01:30am 13.7 N 12 16 1016.6 - 0.0 - - - - - - -
19/01:00am 14.0 N 12 19 1016.8 - 0.0 - - - - - - -
19/12:30am 14.2 N 13 21 1016.7 - 0.0 - - - - - - -
19/12:00am 13.3 NNE 8 14 1017.2 - 0.0 - - - - - - -
 
Date/Time
EDT
Temp

°C
Wind Pressure Rain
since 9am
mm
Weather Cloud Vis
km
Sea
Height
m
Swell
Dir
 
Speed
knots
Gust
knots
hPa Trend Height
m
Period
s
Dir
18/11:30pm 13.7 NNE 5 9 1018.1 - 0.0 - - - - - - -
18/11:00pm 13.6 NNE 6 9 1018.4 - 0.0 - - - - - - -
18/10:30pm 13.9 N 2 4 1019.5 - 0.0 - - - - - - -
18/10:00pm 14.2 NNE 5 8 1019.8 - 0.0 - - - - - - -
18/09:30pm 14.3 N 9 16 1019.9 - 0.0 - - - - - - -
18/09:00pm 14.7 N 10 17 1020.2 - 0.0 - - - - - - -
18/08:30pm 15.0 NNW 6 10 1020.6 - 0.0 - - - - - - -
18/08:00pm 15.5 N 9 14 1019.8 - 0.0 - - - - - - -
18/07:30pm 16.2 NNW 7 13 1020.7 - 0.0 - - - - - - -
18/07:00pm 17.1 NW 9 17 1020.9 - 0.0 - - - - - - -
18/06:30pm 17.8 WNW 5 8 1020.8 - 0.0 - - - - - - -
18/06:00pm 18.5 W 4 8 1020.5 - 0.0 - - - - - - -
18/05:30pm 20.1 W 5 9 1020.3 - 0.0 - - - - - - -
18/05:00pm 19.6 N 6 11 1020.1 - 0.0 - - - - - - -
18/04:30pm 21.1 NNE 7 14 1020.2 - 0.0 - - - - - - -
18/04:00pm 19.3 NNE 10 14 1020.3 - 0.0 - - - - - - -
18/03:30pm 19.2 N 12 18 1020.5 - 0.0 - - - - - - -
18/03:00pm 18.1 NNE 14 23 1020.8 - 0.0 - - - - - - -
18/02:30pm 19.4 N 13 23 1021.1 - 0.0 - - - - - - -
18/02:00pm 18.5 NNE 15 23 1021.6 - 0.0 - - - - - - -
18/01:30pm 18.9 NNE 14 22 1022.1 - 0.0 - - - - - - -
18/01:00pm 18.9 NNE 17 23 1022.8 - 0.0 - - - - - - -
18/12:30pm 18.9 NNE 17 24 1023.1 - 0.0 - - - - - - -
18/12:00pm 18.4 NNE 16 25 1023.7 - 0.0 - - - - - - -
18/11:30am 18.4 NNE 15 25 1024.2 - 0.0 - - - - - - -
18/11:27am 18.2 NNE 15 25 1024.2 - 0.0 - - - - - - -
18/11:00am 18.1 NNE 14 22 1024.6 - 0.0 - - - - - - -
18/10:30am 17.6 N 7 14 1025.1 - 0.0 - - - - - - -
18/10:00am 16.9 N 5 10 1025.7 - 0.0 - - - - - - -
18/09:30am 15.6 N 7 13 1026.1 - 0.0 - - - - - - -
18/09:00am 13.8 N 8 13 1026.3 - 0.0 - - - - - - -
18/08:30am 13.4 N 7 11 1026.5 - 0.0 - - - - - - -
18/08:00am 12.1 NNW 5 9 1026.8 - 0.0 - - - - - - -
18/07:30am 11.4 NNW 5 8 1026.8 - 0.0 - - - - - - -
18/07:00am 9.6 N 3 6 1026.3 - 0.0 - - - - - - -
18/06:30am 7.6 NNE 4 5 1026.0 - 0.0 - - - - - - -
18/06:00am 8.3 N 5 7 1026.0 - 0.0 - - - - - - -
18/05:30am 7.4 N 4 5 1026.3 - 0.0 - - - - - - -
18/05:00am 8.2 N 4 5 1026.5 - 0.0 - - - - - - -
18/04:30am 8.1 NNW 3 5 1026.6 - 0.0 - - - - - - -
18/04:00am 8.8 WNW 4 5 1026.8 - 0.0 - - - - - - -
18/03:30am 10.2 NNW 6 9 1026.5 - 0.0 - - - - - - -
18/03:00am 10.1 NNW 5 8 1026.7 - 0.0 - - - - - - -
18/02:30am 10.4 N 5 7 1026.9 - 0.0 - - - - - - -
18/02:00am 10.4 N 6 9 1026.9 - 0.0 - - - - - - -
18/01:30am 10.6 N 6 10 1027.0 - 0.0 - - - - - - -
18/01:00am 10.6 N 6 9 1027.3 - 0.0 - - - - - - -
18/12:30am 10.4 N 4 6 1027.4 - 0.0 - - - - - - -
18/12:00am 10.5 N 4 5 1027.6 - 0.0 - - - - - - -
 
Date/Time
EDT
Temp

°C
Wind Pressure Rain
since 9am
mm
Weather Cloud Vis
km
Sea
Height
m
Swell
Dir
 
Speed
knots
Gust
knots
hPa Trend Height
m
Period
s
Dir
17/11:30pm 10.9 N 5 8 1027.9 - 0.0 - - - - - - -
17/11:00pm 10.8 N 4 6 1028.2 - 0.0 - - - - - - -

Other Formats:

Comma delimited format used in spreadsheet applications
http://www.bom.gov.au/fwo/IDT60701/IDT60701.94987.axf

JavaScript Object Notation format (JSON) in row-major order
http://www.bom.gov.au/fwo/IDT60701/IDT60701.94987.json